ALF weather

Alta Airport
Alta, Finnmark, Norway

Public forecast

Using degrees Celsius for public forecast. Weather courtesy of forecast.io.

Current aviation weather report (METAR) for Alta Airport

Retrieved 2020/07/07 00:50 UTC (2 hours ago):

ENAT 070050Z AUTO 12003KT 9999 R11///// R29/P2000N // OVC034/// 09/07 Q0991 RMK WIND 700FT 06005KT

Closest aviation forecast (TAF) to Alta Airport

Closest forecast is Banak Airport, 33.3 nm (61.7 km) E. Retrieved 2020-07-07 00:57 UTC (2 hours ago):

TAF TAF ENNA 062300Z 0700/0724 27008KT 9999 FEW015 BKN040